createdAt,value
2023-03-18T00:01:44.159Z,5.05
2023-03-18T00:04:47.588Z,11.38
2023-03-18T00:07:50.908Z,6.97
2023-03-18T00:10:54.315Z,6.47
2023-03-18T00:13:57.945Z,3.65
2023-03-18T00:17:02.879Z,6.82
2023-03-18T00:20:07.544Z,3.95
2023-03-18T00:23:11.102Z,7.57
2023-03-18T00:26:14.407Z,3.60
2023-03-18T00:29:19.497Z,3.78
2023-03-18T00:32:27.699Z,5.72
2023-03-18T00:35:32.243Z,4.80
2023-03-18T00:38:35.809Z,3.17
2023-03-18T00:41:39.173Z,4.93
2023-03-18T00:44:45.069Z,5.60
2023-03-18T00:47:51.066Z,5.10
2023-03-18T00:50:54.789Z,3.78
2023-03-18T00:53:59.014Z,5.10
2023-03-18T00:57:02.327Z,3.58
2023-03-18T01:00:07.496Z,6.38
2023-03-18T01:03:14.077Z,3.28
2023-03-18T01:06:18.628Z,3.60
2023-03-18T01:09:23.583Z,3.67
2023-03-18T01:12:27.094Z,6.78
2023-03-18T01:15:30.531Z,6.97
2023-03-18T01:18:36.464Z,5.07
2023-03-18T01:21:49.744Z,5.28
2023-03-18T01:24:54.549Z,4.82
2023-03-18T01:28:06.056Z,6.75
2023-03-18T01:31:10.376Z,4.03
2023-03-18T01:34:17.102Z,5.45
2023-03-18T01:37:27.102Z,4.47
2023-03-18T01:40:42.664Z,2.70
2023-03-18T01:43:48.666Z,6.00
2023-03-18T01:46:52.779Z,3.35
2023-03-18T01:49:59.816Z,5.63
2023-03-18T01:53:04.815Z,4.00
2023-03-18T01:56:08.926Z,3.88
2023-03-18T01:59:12.796Z,3.05
2023-03-18T02:02:17.278Z,4.40
2023-03-18T02:08:27.714Z,6.47
2023-03-18T02:11:32.521Z,3.53
2023-03-18T02:14:36.771Z,7.20
2023-03-18T02:17:41.901Z,6.07
2023-03-18T02:20:52.741Z,5.28
2023-03-18T02:24:01.096Z,3.42
2023-03-18T02:27:05.980Z,4.60
2023-03-18T02:30:22.496Z,8.23
2023-03-18T02:33:31.069Z,4.43
2023-03-18T02:36:35.005Z,5.75
2023-03-18T02:40:13.671Z,6.63
2023-03-18T02:43:22.310Z,6.97
2023-03-18T02:46:35.126Z,4.53
2023-03-18T02:49:38.770Z,6.03
2023-03-18T02:52:42.461Z,5.80
2023-03-18T02:55:46.456Z,4.57
2023-03-18T02:58:51.689Z,4.47
2023-03-18T03:01:57.454Z,2.50
2023-03-18T03:05:00.878Z,7.05
2023-03-18T03:08:04.459Z,3.35
2023-03-18T03:11:12.445Z,6.35
2023-03-18T03:14:19.172Z,5.78
2023-03-18T03:17:27.343Z,3.83
2023-03-18T03:20:32.574Z,3.38
2023-03-18T03:23:36.689Z,2.92
2023-03-18T03:26:40.135Z,13.38
2023-03-18T03:29:43.510Z,3.20
2023-03-18T03:32:48.585Z,3.80
2023-03-18T03:35:53.918Z,2.55
2023-03-18T03:38:57.188Z,7.10
2023-03-18T03:42:00.771Z,4.95
2023-03-18T03:45:05.989Z,2.35
2023-03-18T03:48:10.857Z,4.57
2023-03-18T03:51:14.676Z,4.72
2023-03-18T03:54:18.843Z,5.13
2023-03-18T03:57:23.601Z,8.15
2023-03-18T04:00:27.506Z,3.53
2023-03-18T04:03:32.258Z,3.58
2023-03-18T04:06:35.621Z,4.05
2023-03-18T04:09:39.072Z,6.15
2023-03-18T04:12:42.564Z,5.18
2023-03-18T04:15:47.438Z,5.10
2023-03-18T04:18:56.200Z,2.78
2023-03-18T04:22:01.213Z,2.05
2023-03-18T04:25:10.784Z,3.25
2023-03-18T04:28:15.702Z,5.90
2023-03-18T04:31:19.233Z,3.67
2023-03-18T04:34:24.831Z,2.88
2023-03-18T04:37:28.340Z,4.80
2023-03-18T04:40:34.095Z,3.28
2023-03-18T04:43:37.734Z,2.70
2023-03-18T04:46:42.435Z,5.57
2023-03-18T04:49:47.644Z,3.13
2023-03-18T04:52:51.793Z,4.47
2023-03-18T04:56:00.731Z,5.40
2023-03-18T04:59:12.736Z,5.35
2023-03-18T05:02:17.243Z,3.63
2023-03-18T05:05:22.230Z,4.47
2023-03-18T05:08:28.105Z,5.10
2023-03-18T05:11:33.022Z,4.43
2023-03-18T05:14:43.781Z,7.55
2023-03-18T05:17:47.543Z,4.00
2023-03-18T05:20:52.703Z,3.72
2023-03-18T05:23:56.312Z,3.92
2023-03-18T05:27:01.516Z,7.43
2023-03-18T05:30:12.273Z,4.68
2023-03-18T05:33:23.405Z,3.50
2023-03-18T05:36:43.030Z,6.95
2023-03-18T05:39:46.829Z,9.15
2023-03-18T05:42:56.573Z,4.20
2023-03-18T05:46:09.511Z,4.60
2023-03-18T05:49:48.695Z,7.82
2023-03-18T05:52:57.426Z,5.38
2023-03-18T05:56:04.644Z,4.85
2023-03-18T05:59:10.186Z,7.40
2023-03-18T06:02:21.679Z,8.38
2023-03-18T06:05:25.654Z,6.32
2023-03-18T06:08:30.543Z,11.75
2023-03-18T06:11:33.850Z,7.93
2023-03-18T06:14:37.840Z,6.00
2023-03-18T06:17:42.922Z,9.18
2023-03-18T06:20:46.499Z,8.27
2023-03-18T06:23:51.273Z,9.07
2023-03-18T06:26:54.692Z,8.35
2023-03-18T06:29:58.215Z,6.43
2023-03-18T06:33:02.320Z,6.43
2023-03-18T06:36:06.024Z,7.10
2023-03-18T06:39:12.198Z,5.10
2023-03-18T06:42:15.765Z,10.80
2023-03-18T06:45:31.557Z,4.90
2023-03-18T06:48:41.752Z,7.22
2023-03-18T06:51:48.611Z,6.45
2023-03-18T06:54:55.688Z,6.72
2023-03-18T06:57:59.198Z,6.85
2023-03-18T07:01:12.428Z,10.80
2023-03-18T07:04:18.787Z,9.55
2023-03-18T07:07:23.028Z,9.20
2023-03-18T07:10:29.541Z,9.48
2023-03-18T07:13:41.558Z,7.10
2023-03-18T07:16:52.736Z,6.60
2023-03-18T07:19:56.782Z,6.53
2023-03-18T07:23:00.409Z,8.50
2023-03-18T07:26:06.318Z,8.73
2023-03-18T07:29:10.437Z,9.15
2023-03-18T07:32:14.807Z,11.43
2023-03-18T07:35:18.874Z,9.52
2023-03-18T07:38:22.311Z,10.40
2023-03-18T07:41:27.673Z,11.80
2023-03-18T07:44:31.291Z,10.90
2023-03-18T07:47:34.926Z,10.45
2023-03-18T07:50:38.327Z,9.63
2023-03-18T07:53:41.822Z,9.30
2023-03-18T07:56:47.311Z,14.10
2023-03-18T07:59:51.831Z,9.48
2023-03-18T08:02:55.293Z,5.55
2023-03-18T08:05:58.637Z,8.38
2023-03-18T08:09:02.025Z,11.13
2023-03-18T08:12:07.235Z,7.57
2023-03-18T08:15:11.466Z,6.80
2023-03-18T08:18:15.153Z,9.13
2023-03-18T08:21:18.743Z,9.07
2023-03-18T08:24:22.020Z,9.20
2023-03-18T08:27:27.083Z,16.13
2023-03-18T08:30:30.552Z,10.18
2023-03-18T08:33:33.898Z,8.63
2023-03-18T08:36:37.429Z,6.65
2023-03-18T08:39:41.204Z,8.40
2023-03-18T08:42:46.865Z,8.15
2023-03-18T08:45:53.565Z,8.70
2023-03-18T08:49:03.374Z,12.30
2023-03-18T08:52:29.686Z,12.80
2023-03-18T08:59:07.716Z,11.20
2023-03-18T09:02:16.971Z,7.75
2023-03-18T09:05:45.692Z,7.70
2023-03-18T09:09:19.064Z,8.80
2023-03-18T09:12:23.260Z,8.63
2023-03-18T09:15:33.337Z,8.63
2023-03-18T09:18:42.764Z,9.65
2023-03-18T09:21:50.621Z,11.90
2023-03-18T09:25:02.388Z,6.82
2023-03-18T09:28:06.037Z,10.18
2023-03-18T09:31:26.531Z,8.05
2023-03-18T09:34:46.526Z,8.15
2023-03-18T09:37:53.979Z,7.32
2023-03-18T09:41:03.889Z,6.43
2023-03-18T09:44:13.674Z,10.65
2023-03-18T09:47:25.561Z,8.23
2023-03-18T09:50:34.839Z,9.63
2023-03-18T09:53:42.912Z,8.82
2023-03-18T09:56:47.815Z,9.20
2023-03-18T09:59:55.646Z,6.95
2023-03-18T10:03:06.171Z,9.10
2023-03-18T10:06:16.197Z,7.88
2023-03-18T10:09:22.622Z,15.82
2023-03-18T10:12:32.453Z,10.27
2023-03-18T10:15:38.864Z,7.78
2023-03-18T10:18:45.833Z,7.90
2023-03-18T10:21:55.012Z,8.85
2023-03-18T10:25:01.322Z,8.30
2023-03-18T10:28:15.422Z,8.95
2023-03-18T10:31:25.874Z,6.20
2023-03-18T10:34:48.435Z,11.23
2023-03-18T10:47:13.113Z,6.97
2023-03-18T10:55:30.141Z,6.72
2023-03-18T10:58:34.840Z,4.25
2023-03-18T11:01:43.299Z,4.32
2023-03-18T11:04:50.364Z,7.43
2023-03-18T11:08:03.624Z,7.43
2023-03-18T11:11:18.713Z,8.55
2023-03-18T11:14:23.386Z,7.30
2023-03-18T11:17:31.561Z,11.73
2023-03-18T11:20:43.085Z,6.25
2023-03-18T11:24:10.920Z,5.43
2023-03-18T11:27:31.843Z,6.47
2023-03-18T11:30:53.133Z,5.40
2023-03-18T11:34:10.850Z,8.50
2023-03-18T11:37:18.141Z,7.13
2023-03-18T11:40:31.914Z,6.38
2023-03-18T11:44:02.066Z,4.45
2023-03-18T11:47:27.507Z,5.75
2023-03-18T11:50:38.026Z,9.15
2023-03-18T11:53:51.158Z,5.50
2023-03-18T11:56:57.452Z,7.07
2023-03-18T12:00:08.509Z,5.88
2023-03-18T12:03:29.568Z,6.82
2023-03-18T12:06:35.971Z,11.20
2023-03-18T12:09:41.465Z,6.50
2023-03-18T12:12:49.733Z,6.82
2023-03-18T12:16:03.842Z,7.30
2023-03-18T12:19:17.490Z,9.00
2023-03-18T12:22:29.252Z,8.68
2023-03-18T12:25:41.071Z,6.20
2023-03-18T12:28:49.723Z,8.90
2023-03-18T12:32:06.526Z,7.07
2023-03-18T12:35:19.483Z,6.28
2023-03-18T12:38:35.706Z,9.68
2023-03-18T12:41:45.899Z,7.50
2023-03-18T12:44:57.628Z,4.57
2023-03-18T12:48:06.485Z,8.45
2023-03-18T12:51:12.586Z,9.52
2023-03-18T12:54:20.510Z,4.88
2023-03-18T12:57:31.715Z,5.28
2023-03-18T13:00:38.771Z,5.90
2023-03-18T13:03:45.134Z,4.25
2023-03-18T13:06:53.939Z,6.65
2023-03-18T13:10:02.508Z,7.57
2023-03-18T13:13:09.475Z,8.00
2023-03-18T13:16:14.028Z,6.32
2023-03-18T13:19:19.358Z,6.97
2023-03-18T13:22:33.091Z,4.55
2023-03-18T13:25:41.991Z,8.10
2023-03-18T13:29:04.323Z,2.72
2023-03-18T13:32:16.533Z,2.40
2023-03-18T13:35:45.769Z,2.35
2023-03-18T13:39:00.669Z,2.28
2023-03-18T13:42:24.509Z,3.33
2023-03-18T13:45:30.433Z,17.67
2023-03-18T13:48:34.808Z,6.38
2023-03-18T13:51:50.613Z,4.05
2023-03-18T19:26:16.004Z,13.20
2023-03-18T19:32:35.791Z,13.95
2023-03-18T19:35:41.184Z,14.50
2023-03-18T19:38:44.865Z,17.30
2023-03-18T19:41:55.598Z,12.07
2023-03-18T20:09:10.309Z,14.57
2023-03-18T20:22:26.106Z,15.75
2023-03-18T20:26:20.140Z,17.33
2023-03-18T20:29:57.217Z,17.23
2023-03-18T20:33:32.471Z,18.65
2023-03-18T20:41:44.294Z,16.92
2023-03-18T20:45:37.277Z,19.85
2023-03-18T20:50:28.878Z,18.15
2023-03-18T20:54:09.899Z,18.40
2023-03-18T20:58:50.545Z,15.10
2023-03-18T21:02:14.827Z,14.88
2023-03-18T21:06:06.685Z,11.02
2023-03-18T21:09:14.282Z,13.88
2023-03-18T21:13:04.486Z,16.80
2023-03-18T21:16:16.999Z,15.13
2023-03-18T21:33:46.118Z,13.27
2023-03-18T21:37:03.339Z,13.43
2023-03-18T21:40:07.767Z,17.60
2023-03-18T21:43:24.795Z,14.43
2023-03-18T21:46:39.973Z,17.40
2023-03-18T21:49:45.642Z,13.80
2023-03-18T21:52:52.575Z,11.48
2023-03-18T21:56:13.498Z,12.65
2023-03-18T21:59:17.017Z,19.52
2023-03-18T22:02:25.788Z,15.65
2023-03-18T22:05:35.558Z,11.13
2023-03-18T22:08:39.463Z,17.95
2023-03-18T22:11:45.282Z,15.93
2023-03-18T22:14:48.940Z,10.68
2023-03-18T22:17:52.889Z,13.38
2023-03-18T22:20:58.015Z,18.40
2023-03-18T22:24:02.581Z,15.32
2023-03-18T22:27:13.065Z,17.75
2023-03-18T22:30:22.830Z,17.90
2023-03-18T22:33:27.501Z,14.88
2023-03-18T22:36:34.831Z,13.85
2023-03-18T22:39:43.116Z,19.65
2023-03-18T22:43:00.757Z,16.40
2023-03-18T22:46:14.147Z,13.50
2023-03-18T22:49:17.706Z,12.65
2023-03-18T22:52:23.988Z,11.18
2023-03-18T22:55:28.378Z,12.88
2023-03-18T22:58:42.950Z,10.68
2023-03-18T23:01:47.002Z,11.65
2023-03-18T23:04:57.189Z,11.23
2023-03-18T23:08:07.573Z,13.02
2023-03-18T23:11:14.040Z,15.18
2023-03-18T23:14:19.562Z,10.60
2023-03-18T23:17:24.088Z,11.38
2023-03-18T23:20:27.569Z,10.48
2023-03-18T23:23:44.368Z,9.32
2023-03-18T23:26:47.915Z,10.90
2023-03-18T23:29:53.119Z,8.15
2023-03-18T23:33:00.018Z,5.72
2023-03-18T23:36:03.666Z,6.40
2023-03-18T23:39:08.473Z,5.57
2023-03-18T23:42:12.362Z,9.13
2023-03-18T23:45:21.097Z,9.90
2023-03-18T23:48:28.763Z,6.22
2023-03-18T23:51:35.145Z,5.22
2023-03-18T23:54:39.982Z,6.43
2023-03-18T23:57:43.774Z,8.05
